Time;durP1;ratioP1;P1;durP2;ratioP2;P2;SDS_P1;SDS_P2;PMS_P1;PMS_P2;Temp;Humidity;BMP_temperature;BMP_pressure;BME280_temperature;BME280_humidity;BME280_pressure;Samples;Min_cycle;Max_cycle;Signal;HPM_P1;HPM_P2
2023/05/21 00:00:53;;;;;;;3.33;2.22;;;;;;;16.87;75.22;99801.97;5095800;28;20383;-65
2023/05/21 00:03:25;;;;;;;1.00;0.97;;;;;;;16.81;75.16;99793.53;5097100;28;20430;-64
2023/05/21 00:05:56;;;;;;;1.45;1.15;;;;;;;16.78;75.17;99799.63;5096729;28;20051;-64
2023/05/21 00:08:25;;;;;;;0.93;0.93;;;;;;;16.82;75.47;99806.38;5097043;28;20040;-63
2023/05/21 00:10:55;;;;;;;2.15;1.23;;;;;;;16.89;75.47;99800.22;5096678;28;20048;-64
2023/05/21 00:13:24;;;;;;;1.38;1.27;;;;;;;16.93;75.41;99801.84;5096785;28;20458;-64
2023/05/21 00:15:53;;;;;;;2.00;1.83;;;;;;;16.94;75.34;99790.63;5096500;28;20514;-63
2023/05/21 00:18:24;;;;;;;4.70;1.67;;;;;;;16.93;75.24;99801.84;5096496;28;20126;-64
2023/05/21 00:20:53;;;;;;;1.10;1.00;;;;;;;16.96;75.40;99795.75;5097154;28;20051;-64
2023/05/21 00:23:25;;;;;;;1.25;1.10;;;;;;;16.96;75.07;99799.19;5097209;28;20040;-65
2023/05/21 00:25:54;;;;;;;3.35;1.77;;;;;;;16.91;75.47;99802.75;5096593;28;20378;-68
2023/05/21 00:28:23;;;;;;;2.20;1.37;;;;;;;16.94;75.23;99805.28;5096580;28;20044;-65
2023/05/21 00:30:51;;;;;;;2.43;2.23;;;;;;;16.94;75.28;99800.09;5096275;28;20273;-65
2023/05/21 00:33:25;;;;;;;;;;;;;;;16.94;75.30;99806.09;5096643;28;20131;-64
2023/05/21 00:35:54;;;;;;;2.78;1.60;;;;;;;16.92;75.27;99801.84;5095317;28;19920;-63
2023/05/21 00:38:26;;;;;;;1.27;1.17;;;;;;;16.90;75.28;99799.31;5096111;28;20047;-63
2023/05/21 00:40:56;;;;;;;2.65;0.82;;;;;;;16.89;75.25;99797.66;5096110;28;20078;-63
2023/05/21 00:43:25;;;;;;;2.07;1.30;;;;;;;16.89;75.57;99786.47;5095962;28;20040;-64
2023/05/21 00:45:55;;;;;;;1.60;1.35;;;;;;;16.93;75.52;99794.09;5094739;28;20036;-64
2023/05/21 00:48:24;;;;;;;1.58;1.15;;;;;;;16.86;75.33;99786.53;5095621;28;20044;-64
2023/05/21 00:50:53;;;;;;;1.42;1.25;;;;;;;16.80;75.59;99781.53;5095663;28;20052;-63
2023/05/21 00:53:24;;;;;;;1.87;1.17;;;;;;;16.71;75.85;99787.75;5094595;28;20138;-64
2023/05/21 00:55:53;;;;;;;0.85;0.85;;;;;;;16.66;75.80;99790.44;5095549;28;20126;-63
2023/05/21 00:58:22;;;;;;;0.95;0.90;;;;;;;16.57;76.29;99798.41;5094816;28;20474;-63
2023/05/21 01:00:55;;;;;;;1.95;1.17;;;;;;;16.53;76.14;99796.75;5095653;28;20070;-63
2023/05/21 01:03:24;;;;;;;1.38;1.27;;;;;;;16.49;76.72;99791.69;5095594;28;20048;-63
2023/05/21 01:05:58;;;;;;;;;;;;;;;16.40;76.62;99805.63;5095961;28;20054;-64
2023/05/21 01:08:29;;;;;;;1.30;1.20;;;;;;;16.36;76.98;99801.44;5094382;28;19920;-64
2023/05/21 01:10:59;;;;;;;1.25;1.15;;;;;;;16.29;76.84;99793.88;5095912;28;20040;-64
2023/05/21 01:13:30;;;;;;;2.15;1.80;;;;;;;16.31;77.16;99798.13;5094169;28;20094;-63
2023/05/21 01:16:00;;;;;;;1.25;1.15;;;;;;;16.28;77.00;99792.16;5095336;28;20048;-65
2023/05/21 01:18:33;;;;;;;1.30;1.20;;;;;;;16.26;77.04;99792.22;5094172;28;20553;-65
2023/05/21 01:21:04;;;;;;;2.08;1.23;;;;;;;16.15;77.00;99795.91;5094128;28;20047;-65
2023/05/21 01:23:34;;;;;;;3.08;1.42;;;;;;;16.16;76.75;99795.00;5093994;28;20044;-64
2023/05/21 01:26:03;;;;;;;3.67;1.80;;;;;;;16.08;76.86;99784.88;5094348;28;20463;-64
2023/05/21 01:28:33;;;;;;;3.17;1.97;;;;;;;16.04;76.85;99798.69;5094218;28;20443;-64
2023/05/21 01:31:12;;;;;;;0.82;0.82;;;;;;;15.99;77.04;99791.06;5095067;28;20758;-63
2023/05/21 01:33:47;;;;;;;1.13;0.90;;;;;;;15.95;77.08;99794.59;5095321;28;20410;-63
2023/05/21 01:36:23;;;;;;;1.40;1.23;;;;;;;15.84;77.17;99796.53;5095114;28;20048;-63
2023/05/21 01:39:01;;;;;;;1.13;1.00;;;;;;;15.72;77.66;99770.19;5094044;28;20448;-63
2023/05/21 01:41:37;;;;;;;2.85;1.95;;;;;;;15.78;77.62;99786.38;5094971;28;20067;-63
2023/05/21 01:44:07;;;;;;;2.42;1.30;;;;;;;15.66;77.15;99771.16;5095094;28;20501;-63
2023/05/21 01:46:37;;;;;;;1.52;1.02;;;;;;;15.63;77.88;99776.38;5093981;28;20389;-65
2023/05/21 01:49:07;;;;;;;1.85;1.73;;;;;;;15.53;77.87;99771.41;5093559;28;20044;-63
2023/05/21 01:51:37;;;;;;;2.50;1.60;;;;;;;15.47;78.32;99774.97;5093854;28;20043;-65
2023/05/21 01:54:07;;;;;;;2.08;1.52;;;;;;;15.39;78.33;99776.81;5094353;28;20044;-64
2023/05/21 01:56:36;;;;;;;1.40;1.30;;;;;;;15.33;78.30;99769.22;5093417;28;20131;-63
2023/05/21 01:59:05;;;;;;;1.77;1.40;;;;;;;15.28;78.74;99768.44;5094496;28;20119;-63
2023/05/21 02:01:34;;;;;;;1.25;1.15;;;;;;;15.29;78.98;99770.97;5092777;28;20044;-63
2023/05/21 02:04:03;;;;;;;0.98;0.98;;;;;;;15.24;78.91;99769.34;5094366;28;20057;-63
2023/05/21 02:06:34;;;;;;;1.25;1.15;;;;;;;15.21;79.31;99766.88;5094391;28;20044;-63
2023/05/21 02:09:03;;;;;;;2.70;1.75;;;;;;;15.19;79.48;99771.16;5094375;28;20051;-64
2023/05/21 02:11:34;;;;;;;2.27;1.80;;;;;;;15.17;79.16;99771.19;5094876;28;20032;-64
2023/05/21 02:14:04;;;;;;;2.75;2.33;;;;;;;15.14;79.47;99770.44;5093454;28;20067;-63
2023/05/21 02:16:33;;;;;;;2.00;1.75;;;;;;;15.13;79.57;99758.44;5093218;28;20549;-63
2023/05/21 02:19:03;;;;;;;2.22;1.88;;;;;;;15.22;79.98;99778.84;5094795;28;20070;-64
2023/05/21 02:21:32;;;;;;;2.78;1.63;;;;;;;15.25;79.85;99768.50;5092959;28;20047;-65
2023/05/21 02:24:01;;;;;;;2.67;2.23;;;;;;;15.29;79.62;99776.13;5092965;28;20044;-65
2023/05/21 02:26:30;;;;;;;4.13;1.93;;;;;;;15.32;79.37;99767.50;5094409;28;20722;-63
2023/05/21 02:29:01;;;;;;;2.00;1.48;;;;;;;15.30;79.69;99771.84;5094125;28;20044;-63
2023/05/21 02:31:31;;;;;;;0.68;0.60;;;;;;;15.23;79.57;99765.13;5092878;28;20048;-63
2023/05/21 02:33:59;;;;;;;0.70;0.70;;;;;;;15.19;79.99;99769.44;5093014;28;20418;-63
2023/05/21 02:36:32;;;;;;;3.03;1.60;;;;;;;15.14;79.42;99760.13;5093905;28;20093;-63
2023/05/21 02:39:01;;;;;;;1.98;1.52;;;;;;;15.04;79.86;99758.59;5094570;28;20043;-65
2023/05/21 02:41:29;;;;;;;2.50;1.73;;;;;;;14.96;79.89;99755.31;5094250;28;20036;-64
2023/05/21 02:44:00;;;;;;;1.25;1.15;;;;;;;14.92;80.25;99748.53;5092973;28;20181;-65
2023/05/21 02:46:29;;;;;;;2.20;1.35;;;;;;;14.90;80.51;99755.44;5092599;28;20043;-63
2023/05/21 02:48:58;;;;;;;1.02;1.02;;;;;;;14.85;80.48;99746.94;5092601;28;20093;-64
2023/05/21 02:51:27;;;;;;;1.08;1.05;;;;;;;14.86;80.32;99743.47;5092581;28;20036;-64
2023/05/21 02:53:56;;;;;;;0.90;0.90;;;;;;;14.80;80.76;99739.31;5092624;28;20124;-65
2023/05/21 02:56:27;;;;;;;1.33;1.23;;;;;;;14.55;80.59;99713.16;5093402;28;20323;-64
2023/05/21 02:58:56;;;;;;;1.50;1.40;;;;;;;14.76;80.48;99748.78;5093887;28;20555;-64
2023/05/21 03:01:26;;;;;;;0.77;0.77;;;;;;;14.73;80.67;99748.00;5092465;28;20044;-64
2023/05/21 03:03:57;;;;;;;2.00;1.40;;;;;;;14.67;80.32;99751.50;5093968;28;20138;-64
2023/05/21 03:06:26;;;;;;;0.90;0.90;;;;;;;14.67;81.00;99743.81;5092303;28;20071;-63
2023/05/21 03:08:55;;;;;;;1.38;0.82;;;;;;;14.71;80.63;99745.44;5092432;28;20275;-63
2023/05/21 03:11:24;;;;;;;2.70;1.48;;;;;;;14.74;80.78;99736.84;5093617;28;20043;-63
2023/05/21 03:13:53;;;;;;;1.13;1.02;;;;;;;14.73;80.37;99737.72;5096501;28;20494;-63
2023/05/21 03:16:22;;;;;;;1.67;1.58;;;;;;;14.71;80.54;99739.44;5097680;28;20044;-63
2023/05/21 03:18:53;;;;;;;1.65;1.02;;;;;;;14.71;80.30;99735.16;5097646;28;20044;-64
2023/05/21 03:21:22;;;;;;;1.75;1.55;;;;;;;14.67;80.24;99748.09;5096530;28;20047;-65
2023/05/21 03:23:51;;;;;;;1.13;1.05;;;;;;;14.63;79.81;99751.59;5097572;28;20048;-65
2023/05/21 03:26:20;;;;;;;2.03;1.17;;;;;;;14.59;79.98;99750.78;5096324;28;20097;-65
2023/05/21 03:28:49;;;;;;;2.17;1.85;;;;;;;14.62;80.03;99753.31;5096529;28;20494;-63
2023/05/21 03:31:18;;;;;;;1.67;1.10;;;;;;;14.67;80.29;99748.94;5096627;28;20051;-63
2023/05/21 03:33:56;;;;;;;1.38;1.27;;;;;;;14.66;80.00;99756.69;5097758;28;20044;-63
2023/05/21 03:36:29;;;;;;;1.77;1.38;;;;;;;14.69;79.82;99754.03;5097513;28;20072;-64
2023/05/21 03:38:58;;;;;;;5.30;1.95;;;;;;;14.66;79.99;99752.38;5096146;28;20047;-64
2023/05/21 03:41:27;;;;;;;0.93;0.87;;;;;;;14.67;79.72;99754.06;5096056;28;20043;-65
2023/05/21 03:44:03;;;;;;;1.50;1.40;;;;;;;14.72;80.25;99757.44;5096349;28;20174;-64
2023/05/21 03:46:41;;;;;;;0.75;0.68;;;;;;;14.83;80.08;99758.97;5097480;28;20052;-65
2023/05/21 03:49:20;;;;;;;1.13;1.05;;;;;;;14.83;79.89;99753.84;5097031;28;20055;-63
2023/05/21 03:51:52;;;;;;;4.97;0.80;;;;;;;14.87;80.12;99760.59;5097044;28;20052;-63
2023/05/21 03:54:23;;;;;;;1.58;1.00;;;;;;;14.88;79.68;99762.28;5095567;28;20052;-64
2023/05/21 03:56:55;;;;;;;1.83;1.33;;;;;;;14.95;79.88;99763.91;5096883;28;20090;-63
2023/05/21 03:59:26;;;;;;;1.83;0.98;;;;;;;15.02;79.62;99765.50;5096846;28;20052;-64
2023/05/21 04:01:56;;;;;;;4.07;2.20;;;;;;;15.06;79.44;99764.56;5096844;28;20062;-65
2023/05/21 04:04:28;;;;;;;1.25;1.15;;;;;;;15.09;79.48;99767.09;5097092;28;20081;-65
2023/05/21 04:06:57;;;;;;;1.23;1.13;;;;;;;15.07;79.75;99767.09;5095806;28;20397;-65
2023/05/21 04:09:26;;;;;;;3.13;1.83;;;;;;;15.10;79.71;99768.75;5095471;28;20036;-63
2023/05/21 04:11:55;;;;;;;2.75;0.80;;;;;;;15.21;79.89;99777.16;5097009;28;20071;-63
2023/05/21 04:14:24;;;;;;;2.80;1.27;;;;;;;15.32;79.48;99775.22;5095695;28;20131;-63
2023/05/21 04:16:53;;;;;;;1.65;1.52;;;;;;;15.40;79.81;99773.38;5095625;28;20114;-63
2023/05/21 04:19:22;;;;;;;1.17;1.07;;;;;;;15.49;79.65;99770.66;5096465;28;20048;-63
2023/05/21 04:21:52;;;;;;;1.77;1.40;;;;;;;15.57;79.28;99765.34;5096483;28;20078;-64
2023/05/21 04:24:22;;;;;;;2.15;1.35;;;;;;;15.67;79.71;99769.44;5094545;28;20051;-63
2023/05/21 04:27:02;;;;;;;3.97;1.23;;;;;;;15.77;79.18;99766.66;5096944;28;20135;-63
2023/05/21 04:29:32;;;;;;;1.67;1.10;;;;;;;15.91;79.10;99764.63;5096656;28;20036;-64
2023/05/21 04:32:02;;;;;;;1.10;1.00;;;;;;;16.04;79.17;99768.66;5096850;28;20412;-63
2023/05/21 04:34:32;;;;;;;2.33;2.13;;;;;;;16.18;78.62;99770.91;5095022;28;20066;-64
2023/05/21 04:37:03;;;;;;;0.65;0.65;;;;;;;16.28;78.67;99766.41;5096459;28;20066;-64
2023/05/21 04:39:33;;;;;;;0.98;0.95;;;;;;;16.35;78.23;99767.97;5094933;28;20509;-64
2023/05/21 04:42:02;;;;;;;2.08;1.00;;;;;;;16.49;78.43;99760.75;5095162;28;20397;-63
2023/05/21 04:44:32;;;;;;;1.45;1.35;;;;;;;16.59;78.27;99767.44;5096028;28;20044;-63
2023/05/21 04:47:01;;;;;;;;;;;;;;;16.68;77.83;99762.06;5095515;28;20424;-64
2023/05/21 04:49:30;;;;;;;1.10;1.00;;;;;;;16.75;77.59;99763.59;5095876;28;19935;-64
2023/05/21 04:52:00;;;;;;;3.15;1.85;;;;;;;16.86;77.70;99769.34;5096364;28;20048;-64
2023/05/21 04:54:31;;;;;;;2.53;2.05;;;;;;;17.03;77.29;99769.78;5095645;28;20432;-64
2023/05/21 04:56:59;;;;;;;1.25;1.15;;;;;;;17.16;77.19;99760.81;5094819;28;20036;-64
2023/05/21 04:59:29;;;;;;;2.03;1.58;;;;;;;17.34;77.00;99757.78;5095918;28;20440;-64
2023/05/21 05:01:58;;;;;;;2.25;1.75;;;;;;;17.51;76.59;99766.78;5095748;28;20101;-63
2023/05/21 05:04:27;;;;;;;1.80;1.63;;;;;;;17.65;76.39;99769.88;5094787;28;20125;-64
2023/05/21 05:06:56;;;;;;;1.17;1.05;;;;;;;17.88;76.22;99772.63;5094400;28;20560;-64
2023/05/21 05:09:25;;;;;;;2.53;1.50;;;;;;;18.11;75.60;99770.25;5095539;28;20556;-64
2023/05/21 05:11:55;;;;;;;1.53;1.20;;;;;;;18.25;75.01;99757.75;5094601;28;20039;-64
2023/05/21 05:14:25;;;;;;;1.20;1.10;;;;;;;18.44;74.42;99764.03;5094604;28;20489;-64
2023/05/21 05:16:58;;;;;;;2.25;1.08;;;;;;;18.61;73.77;99756.63;5094434;28;20386;-65
2023/05/21 05:19:28;;;;;;;1.35;1.20;;;;;;;18.80;73.09;99756.03;5095369;28;20127;-64
2023/05/21 05:21:57;;;;;;;0.95;0.95;;;;;;;18.94;72.32;99753.81;5094013;28;20067;-65
2023/05/21 05:24:26;;;;;;;1.88;1.30;;;;;;;19.08;71.93;99751.59;5094057;28;20068;-65
2023/05/21 05:26:56;;;;;;;1.20;1.10;;;;;;;19.21;71.20;99747.72;5095170;28;20054;-65
2023/05/21 05:29:25;;;;;;;2.10;1.08;;;;;;;19.30;70.72;99742.22;5094281;28;20295;-65
2023/05/21 05:31:54;;;;;;;1.45;1.25;;;;;;;19.46;70.50;99748.56;5095159;28;20044;-65
2023/05/21 05:34:23;;;;;;;3.07;2.03;;;;;;;19.60;69.64;99748.94;5093095;28;20048;-64
2023/05/21 05:36:52;;;;;;;0.88;0.88;;;;;;;19.68;69.07;99743.44;5093948;28;20638;-65
2023/05/21 05:39:21;;;;;;;4.27;1.27;;;;;;;19.80;68.72;99743.84;5094942;28;20040;-64
2023/05/21 05:41:51;;;;;;;2.17;1.40;;;;;;;19.91;68.18;99740.88;5094887;28;20058;-65
2023/05/21 05:44:23;;;;;;;2.40;1.52;;;;;;;20.02;67.81;99744.75;5095043;28;20056;-65
2023/05/21 05:46:52;;;;;;;3.13;2.33;;;;;;;20.12;67.28;99729.69;5093630;28;20050;-65
2023/05/21 05:49:21;;;;;;;1.02;0.88;;;;;;;20.22;66.56;99730.16;5094148;28;20094;-65
2023/05/21 05:51:50;;;;;;;1.10;1.00;;;;;;;20.29;66.22;99722.13;5093815;28;20058;-64
2023/05/21 05:54:19;;;;;;;0.97;0.97;;;;;;;20.43;65.65;99729.34;5094409;28;20044;-65
2023/05/21 05:56:48;;;;;;;3.20;1.63;;;;;;;20.44;64.91;99726.69;5093411;28;20067;-65
2023/05/21 05:59:17;;;;;;;2.70;1.00;;;;;;;20.49;65.12;99723.94;5090891;28;20118;-66
2023/05/21 06:01:51;;;;;;;0.98;0.90;;;;;;;20.59;65.15;99720.88;5092510;28;20132;-65
2023/05/21 06:04:21;;;;;;;3.30;1.83;;;;;;;20.79;64.71;99727.84;5094324;28;20044;-65
2023/05/21 06:06:51;;;;;;;3.97;1.67;;;;;;;20.92;64.12;99716.06;5093542;28;20090;-64
2023/05/21 06:09:20;;;;;;;1.00;0.90;;;;;;;20.97;64.03;99716.69;5093766;28;20044;-66
2023/05/21 06:11:50;;;;;;;2.72;1.60;;;;;;;21.08;63.87;99704.16;5090074;28;20033;-64
2023/05/21 06:14:19;;;;;;;1.02;0.90;;;;;;;21.22;63.87;99712.19;5072704;28;20067;-66
2023/05/21 06:16:50;;;;;;;0.75;0.75;;;;;;;21.40;63.23;99712.28;5084363;28;20064;-66
2023/05/21 06:19:20;;;;;;;0.85;0.85;;;;;;;21.52;62.70;99714.34;5073471;28;20463;-64
2023/05/21 06:21:49;;;;;;;2.45;1.38;;;;;;;21.58;61.77;99708.84;5072785;28;20047;-64
2023/05/21 06:24:18;;;;;;;1.88;0.95;;;;;;;21.63;61.32;99722.47;5072923;28;20033;-64
2023/05/21 06:26:47;;;;;;;2.70;1.77;;;;;;;21.61;60.82;99716.53;5072703;28;20394;-64
2023/05/21 06:29:16;;;;;;;1.05;0.95;;;;;;;21.61;60.66;99721.72;5056200;28;20048;-63
2023/05/21 06:31:49;;;;;;;2.58;1.77;;;;;;;21.58;60.67;99719.25;5072596;28;20116;-64
2023/05/21 06:34:20;;;;;;;1.00;0.90;;;;;;;21.60;60.69;99722.63;5074169;28;20383;-64
2023/05/21 06:36:49;;;;;;;0.85;0.80;;;;;;;21.64;60.63;99724.19;5073947;28;20102;-63
2023/05/21 06:39:18;;;;;;;0.75;0.75;;;;;;;21.64;60.58;99721.59;5072762;28;20062;-63
2023/05/21 06:41:47;;;;;;;2.67;1.48;;;;;;;21.76;60.59;99713.22;5072652;28;20127;-64
2023/05/21 06:44:26;;;;;;;1.33;0.98;;;;;;;21.99;60.67;99715.63;5073579;28;20098;-64
2023/05/21 06:47:09;;;;;;;1.00;1.00;;;;;;;22.12;60.21;99714.16;5072195;28;20048;-65
2023/05/21 06:49:39;;;;;;;1.08;1.00;;;;;;;22.32;60.04;99713.19;5072405;28;20048;-64
2023/05/21 06:52:08;;;;;;;1.25;1.15;;;;;;;22.48;60.06;99714.97;5073593;28;20060;-65
2023/05/21 06:54:37;;;;;;;2.13;1.50;;;;;;;22.61;59.95;99712.66;5073202;28;20486;-64
2023/05/21 06:57:09;;;;;;;3.53;0.90;;;;;;;22.81;58.86;99706.47;5073540;28;20045;-63
2023/05/21 06:59:38;;;;;;;1.17;1.08;;;;;;;22.99;57.87;99710.72;5072641;28;20040;-63
2023/05/21 07:02:07;;;;;;;1.05;0.95;;;;;;;23.01;56.66;99699.31;5073356;28;20564;-63
2023/05/21 07:04:36;;;;;;;1.10;1.00;;;;;;;23.07;55.90;99699.00;5073414;28;20048;-64
2023/05/21 07:07:07;;;;;;;1.83;1.23;;;;;;;23.17;55.66;99704.59;5072674;28;20051;-64
2023/05/21 07:09:37;;;;;;;1.02;0.90;;;;;;;23.33;54.84;99705.47;5073588;28;20102;-64
2023/05/21 07:12:08;;;;;;;0.90;0.90;;;;;;;23.38;54.35;99697.44;5072138;28;20110;-64
2023/05/21 07:14:38;;;;;;;1.55;1.35;;;;;;;23.46;53.91;99698.75;5072192;28;20102;-64
2023/05/21 07:17:07;;;;;;;1.30;1.20;;;;;;;23.55;53.62;99695.63;5073264;28;20042;-64
2023/05/21 07:19:37;;;;;;;1.65;1.45;;;;;;;23.62;52.96;99691.78;5073180;28;20052;-64
2023/05/21 07:22:07;;;;;;;1.85;0.95;;;;;;;23.72;52.88;99682.53;5072111;28;20047;-64
2023/05/21 07:24:36;;;;;;;0.65;0.65;;;;;;;23.86;52.60;99684.38;5073233;28;20048;-65
2023/05/21 07:27:08;;;;;;;1.50;1.20;;;;;;;23.97;52.71;99682.88;5072267;28;20052;-65
2023/05/21 07:29:54;;;;;;;2.30;1.23;;;;;;;24.14;52.56;99678.53;5072331;28;20049;-64
2023/05/21 07:32:23;;;;;;;1.17;0.98;;;;;;;24.18;52.68;99685.25;5072002;28;20086;-64
2023/05/21 07:34:52;;;;;;;1.05;0.93;;;;;;;24.31;52.65;99681.00;5073108;28;20048;-65
2023/05/21 07:37:26;;;;;;;1.23;1.13;;;;;;;24.46;52.44;99680.97;5073101;28;20513;-65
2023/05/21 07:39:57;;;;;;;1.08;0.80;;;;;;;24.62;51.66;99678.31;5072246;28;20483;-64
2023/05/21 07:42:26;;;;;;;1.63;0.95;;;;;;;24.70;51.26;99678.72;5072190;28;20452;-64
2023/05/21 07:44:57;;;;;;;3.42;1.15;;;;;;;24.84;51.52;99678.78;5072990;28;20056;-64
2023/05/21 07:47:28;;;;;;;2.28;1.15;;;;;;;24.98;51.98;99673.56;5073036;28;20127;-67
2023/05/21 07:49:57;;;;;;;0.47;0.47;;;;;;;25.01;51.57;99683.84;5072007;28;20102;-66
2023/05/21 07:52:28;;;;;;;1.05;0.98;;;;;;;25.06;51.58;99680.97;5071789;28;20102;-65
2023/05/21 07:54:57;;;;;;;0.95;0.88;;;;;;;25.10;51.62;99693.72;5072911;28;20494;-65
2023/05/21 07:57:27;;;;;;;0.85;0.80;;;;;;;25.20;51.86;99678.34;5071591;28;20041;-66
2023/05/21 08:00:00;;;;;;;0.50;0.50;;;;;;;25.29;51.73;99680.41;5076450;28;20052;-65
2023/05/21 08:02:33;;;;;;;1.10;0.88;;;;;;;25.24;50.82;99675.44;5076961;28;20047;-65
2023/05/21 08:05:02;;;;;;;1.33;1.05;;;;;;;25.20;51.30;99673.97;5075350;28;20052;-63
2023/05/21 08:07:33;;;;;;;6.85;2.25;;;;;;;25.05;46.91;99682.72;5075259;28;20071;-64
2023/05/21 08:10:02;;;;;;;0.60;0.60;;;;;;;25.07;45.60;99678.28;5075430;28;20486;-65
2023/05/21 08:12:32;;;;;;;1.38;0.93;;;;;;;25.12;44.40;99676.19;5076787;28;20122;-64
2023/05/21 08:15:01;;;;;;;1.75;1.33;;;;;;;25.29;44.29;99677.78;5075222;28;20068;-64
2023/05/21 08:17:34;;;;;;;0.68;0.68;;;;;;;25.39;43.87;99678.09;5076463;28;20048;-65
2023/05/21 08:20:04;;;;;;;0.85;0.60;;;;;;;25.57;43.78;99677.81;5076433;28;20094;-64
2023/05/21 08:22:37;;;;;;;1.02;0.90;;;;;;;25.69;43.57;99668.38;5076288;28;20157;-64
2023/05/21 08:25:08;;;;;;;1.23;0.82;;;;;;;25.74;43.32;99676.75;5074947;28;20150;-64
2023/05/21 08:27:37;;;;;;;0.95;0.70;;;;;;;25.72;42.95;99670.78;5089524;28;20455;-63
2023/05/21 08:30:09;;;;;;;0.70;0.70;;;;;;;25.67;42.34;99667.63;5095436;28;20504;-64
2023/05/21 08:32:38;;;;;;;1.10;0.95;;;;;;;25.84;42.53;99675.25;5095399;28;20047;-64
2023/05/21 08:35:08;;;;;;;1.00;0.90;;;;;;;25.81;42.21;99670.22;5095000;28;20051;-64
2023/05/21 08:37:57;;;;;;;1.48;1.38;;;;;;;25.90;42.36;99672.22;5094875;28;20441;-64
2023/05/21 08:40:42;;;;;;;0.57;0.55;;;;;;;25.90;42.89;99672.22;5095040;28;20051;-64
2023/05/21 08:43:13;;;;;;;2.05;0.93;;;;;;;25.92;42.27;99667.75;5096037;28;20123;-62
2023/05/21 08:45:53;;;;;;;2.88;1.02;;;;;;;25.86;41.93;99670.75;5096018;28;20052;-64
2023/05/21 08:48:24;;;;;;;0.60;0.60;;;;;;;26.04;42.79;99666.97;5095085;28;20485;-64
2023/05/21 08:50:54;;;;;;;2.38;1.15;;;;;;;26.12;42.18;99667.34;5095183;28;20036;-64
2023/05/21 08:53:34;;;;;;;0.98;0.80;;;;;;;26.25;42.81;99676.06;5094679;28;20052;-64
2023/05/21 08:56:06;;;;;;;1.10;0.93;;;;;;;26.34;42.19;99675.50;5095579;28;20055;-64
2023/05/21 08:58:46;;;;;;;1.15;1.00;;;;;;;26.48;42.24;99672.81;5096183;28;20047;-63
2023/05/21 09:01:19;;;;;;;1.25;1.15;;;;;;;26.46;41.90;99671.22;5094515;28;20547;-64
2023/05/21 09:03:58;;;;;;;0.50;0.50;;;;;;;26.56;41.82;99670.50;5094483;28;20056;-63
2023/05/21 09:06:47;;;;;;;2.47;1.27;;;;;;;26.52;41.04;99661.19;5094509;28;20055;-64
2023/05/21 09:09:28;;;;;;;2.20;0.88;;;;;;;26.60;41.79;99674.59;5094475;28;20490;-64
2023/05/21 09:11:57;;;;;;;0.60;0.60;;;;;;;26.73;42.14;99673.78;5095775;28;20048;-64
2023/05/21 09:14:27;;;;;;;0.98;0.85;;;;;;;26.76;42.04;99676.22;5094565;28;20064;-64
2023/05/21 09:17:07;;;;;;;1.02;0.85;;;;;;;26.81;41.67;99671.50;5094483;28;20568;-63
2023/05/21 09:19:36;;;;;;;0.82;0.73;;;;;;;26.81;41.80;99668.88;5095248;28;20136;-64
2023/05/21 09:22:05;;;;;;;1.80;1.15;;;;;;;26.85;41.75;99670.38;5095287;28;20089;-64
2023/05/21 09:24:35;;;;;;;2.92;1.67;;;;;;;26.95;42.02;99666.16;5094363;28;20068;-64
2023/05/21 09:27:07;;;;;;;0.70;0.70;;;;;;;26.89;41.98;99648.25;5095133;28;20075;-63
2023/05/21 09:29:36;;;;;;;1.98;1.10;;;;;;;26.91;42.19;99665.56;5095121;28;20044;-64
2023/05/21 09:32:11;;;;;;;1.08;1.00;;;;;;;26.94;41.44;99670.59;5095241;28;20040;-63
2023/05/21 09:34:41;;;;;;;3.22;1.15;;;;;;;26.97;41.41;99659.06;5095329;28;20131;-63
2023/05/21 09:37:10;;;;;;;1.08;0.98;;;;;;;27.01;40.68;99660.53;5094148;28;20050;-64
2023/05/21 09:39:57;;;;;;;1.27;1.13;;;;;;;27.09;40.54;99660.84;5094019;28;20486;-64
2023/05/21 09:42:30;;;;;;;0.70;0.70;;;;;;;27.13;39.85;99660.53;5095079;28;20371;-63
2023/05/21 09:45:00;;;;;;;0.60;0.60;;;;;;;27.09;39.92;99656.44;5094149;28;20039;-63
2023/05/21 09:47:30;;;;;;;3.10;1.38;;;;;;;27.17;40.59;99655.91;5094912;28;20123;-63
2023/05/21 09:49:59;;;;;;;1.20;1.10;;;;;;;27.29;40.22;99657.66;5094752;28;20532;-64
2023/05/21 09:52:29;;;;;;;0.50;0.50;;;;;;;27.41;39.93;99659.47;5094681;28;20055;-63
2023/05/21 09:55:00;;;;;;;1.95;1.50;;;;;;;27.41;39.99;99648.13;5094456;28;20056;-64
2023/05/21 09:57:29;;;;;;;1.85;1.55;;;;;;;27.36;40.20;99644.97;5094725;28;20503;-63
2023/05/21 09:59:58;;;;;;;1.30;1.10;;;;;;;27.36;40.31;99650.22;5093059;28;20051;-65
2023/05/21 10:02:30;;;;;;;0.77;0.70;;;;;;;27.46;39.97;99646.03;5092725;28;20028;-63
2023/05/21 10:04:59;;;;;;;0.50;0.50;;;;;;;27.32;41.08;99646.97;5094750;28;20126;-63
2023/05/21 10:07:28;;;;;;;0.60;0.60;;;;;;;27.05;40.65;99641.88;5095387;28;20044;-63
2023/05/21 10:10:01;;;;;;;0.73;0.73;;;;;;;26.81;40.70;99640.06;5094693;28;20050;-63
2023/05/21 10:12:35;;;;;;;1.20;0.93;;;;;;;26.98;40.71;99634.53;5094270;28;20051;-64
2023/05/21 10:15:08;;;;;;;1.33;0.90;;;;;;;27.27;40.00;99641.22;5094608;28;20492;-64
2023/05/21 10:17:39;;;;;;;2.35;1.48;;;;;;;27.44;39.88;99638.28;5094237;28;20051;-64
2023/05/21 10:20:11;;;;;;;1.40;1.30;;;;;;;27.74;39.70;99637.88;5093996;28;20044;-64
2023/05/21 10:22:41;;;;;;;0.80;0.63;;;;;;;27.86;39.40;99631.75;5092822;28;20138;-63
2023/05/21 10:25:14;;;;;;;1.20;1.10;;;;;;;27.79;39.25;99633.13;5094416;28;20039;-64
2023/05/21 10:27:43;;;;;;;2.78;1.25;;;;;;;27.59;39.32;99626.72;5094448;28;20059;-64
2023/05/21 10:30:12;;;;;;;0.60;0.60;;;;;;;27.46;39.51;99628.53;5091605;28;20058;-65
2023/05/21 10:32:41;;;;;;;;;;;;;;;27.31;39.96;99632.19;5094384;28;20043;-64
2023/05/21 10:35:14;;;;;;;0.50;0.50;;;;;;;27.45;39.86;99629.44;5094217;28;19989;-64
2023/05/21 10:37:44;;;;;;;1.10;0.73;;;;;;;27.38;40.16;99628.22;5093956;28;20048;-63
2023/05/21 10:40:15;;;;;;;0.55;0.55;;;;;;;27.54;39.87;99623.59;5093988;28;20056;-64
2023/05/21 10:43:15;;;;;;;4.15;1.27;;;;;;;27.71;39.73;99625.84;5094134;28;20048;-64
2023/05/21 10:46:04;;;;;;;0.52;0.52;;;;;;;27.75;40.86;99608.06;5084287;28;20036;-66
2023/05/21 10:48:54;;;;;;;2.08;0.80;;;;;;;27.90;40.79;99620.94;5092007;28;20079;-66
2023/05/21 10:51:27;;;;;;;1.48;0.82;;;;;;;28.11;40.95;99607.19;5092959;28;20055;-69
2023/05/21 10:54:17;;;;;;;1.77;1.33;;;;;;;28.30;41.47;99607.50;5091942;28;20032;-66
2023/05/21 10:57:01;;;;;;;0.70;0.70;;;;;;;27.89;42.23;99614.00;5052250;28;20384;-66
2023/05/21 10:59:41;;;;;;;1.20;0.98;;;;;;;27.64;42.34;99608.84;5054508;28;20053;-65
2023/05/21 11:02:13;;;;;;;0.90;0.75;;;;;;;27.86;42.15;99614.22;5052702;28;20123;-67
2023/05/21 11:04:47;;;;;;;0.77;0.70;;;;;;;27.70;42.19;99607.56;5053340;28;20060;-65
2023/05/21 11:07:23;;;;;;;0.50;0.50;;;;;;;27.38;42.21;99615.09;5047696;28;20045;-64
2023/05/21 11:09:54;;;;;;;1.55;1.20;;;;;;;27.14;42.20;99608.94;5053618;28;20045;-66
2023/05/21 11:12:26;;;;;;;0.85;0.82;;;;;;;27.00;42.28;99606.44;5053404;28;20128;-66
2023/05/21 11:14:58;;;;;;;1.42;0.85;;;;;;;26.81;42.42;99609.47;5052009;28;20068;-64
2023/05/21 11:17:39;;;;;;;0.52;0.52;;;;;;;26.65;43.08;99600.13;5050105;28;20080;-67
2023/05/21 11:20:13;;;;;;;1.67;1.27;;;;;;;26.49;43.12;99593.28;5051386;28;20135;-65
2023/05/21 11:22:42;;;;;;;1.23;1.13;;;;;;;26.44;43.98;99592.75;5051942;28;20048;-65
2023/05/21 11:25:12;;;;;;;0.65;0.65;;;;;;;26.35;44.61;99603.00;5054059;28;20375;-63
2023/05/21 11:27:42;;;;;;;0.77;0.77;;;;;;;26.11;44.09;99575.84;5050223;28;20044;-63
2023/05/21 11:30:16;;;;;;;1.83;1.15;;;;;;;26.17;45.13;99599.84;5050389;28;20032;-65
2023/05/21 11:33:11;;;;;;;1.02;0.93;;;;;;;26.17;45.72;99599.84;5054991;28;20128;-65
2023/05/21 11:35:57;;;;;;;1.20;1.10;;;;;;;26.14;47.08;99599.19;5057187;28;20048;-65
2023/05/21 11:38:29;;;;;;;1.10;0.90;;;;;;;26.08;47.65;99587.34;5055882;28;20052;-65
2023/05/21 11:41:03;;;;;;;0.50;0.50;;;;;;;26.09;48.09;99599.47;5056924;28;20081;-64
2023/05/21 11:43:34;;;;;;;1.50;1.00;;;;;;;25.95;49.82;99599.53;5056999;28;20052;-65
2023/05/21 11:46:03;;;;;;;1.00;0.90;;;;;;;25.80;51.72;99600.53;5055011;28;20072;-67
2023/05/21 11:48:32;;;;;;;2.10;1.65;;;;;;;25.71;53.46;99601.13;5036890;28;20049;-64
2023/05/21 11:51:02;;;;;;;;;;;;;;;25.46;55.59;99601.00;5037572;28;20045;-64
2023/05/21 11:53:31;;;;;;;0.55;0.55;;;;;;;24.98;56.77;99600.44;5055112;28;19924;-63